Time;durP1;ratioP1;P1;durP2;ratioP2;P2;SDS_P1;SDS_P2;PMS_P1;PMS_P2;Temp;Humidity;BMP_temperature;BMP_pressure;BME280_temperature;BME280_humidity;BME280_pressure;Samples;Min_cycle;Max_cycle;Signal;HPM_P1;HPM_P2
2024/02/13 00:01:29;;;;;;;7.00;4.00;;;;;;;;;;5028026;28;20185;-53
2024/02/13 00:03:55;;;;;;;6.80;4.00;;;;;;;;;;5027253;28;20976;-53
2024/02/13 00:06:21;;;;;;;8.60;4.73;;;;;;;;;;5027376;28;20217;-53
2024/02/13 00:08:47;;;;;;;5.63;4.47;;;;;;;;;;5024141;28;20623;-54
2024/02/13 00:11:14;;;;;;;6.00;4.90;;;;;;;;;;5023020;28;20197;-54
2024/02/13 00:13:40;;;;;;;8.07;5.13;;;;;;;;;;5024130;28;20260;-53
2024/02/13 00:16:07;;;;;;;5.63;4.07;;;;;;;;;;5022970;28;20661;-53
2024/02/13 00:18:33;;;;;;;7.43;3.93;;;;;;;;;;5024895;28;20263;-53
2024/02/13 00:20:59;;;;;;;5.90;4.27;;;;;;;;;;5016957;28;20225;-56
2024/02/13 00:23:26;;;;;;;5.00;3.40;;;;;;;;;;5018725;28;20225;-57
2024/02/13 00:25:51;;;;;;;5.33;4.20;;;;;;;;;;5026885;28;20265;-57
2024/02/13 00:28:19;;;;;;;8.93;4.20;;;;;;;;;;5025937;28;21369;-57
2024/02/13 00:30:45;;;;;;;16.43;4.97;;;;;;;;;;5024408;28;20274;-57
2024/02/13 00:33:11;;;;;;;6.30;4.30;;;;;;;;;;5026124;28;20181;-57
2024/02/13 00:35:39;;;;;;;4.37;3.67;;;;;;;;;;5026485;28;20256;-56
2024/02/13 00:38:06;;;;;;;8.93;4.47;;;;;;;;;;5025718;28;20201;-56
2024/02/13 00:40:32;;;;;;;6.33;4.30;;;;;;;;;;5026554;28;20264;-56
2024/02/13 00:42:58;;;;;;;5.50;4.70;;;;;;;;;;5025570;28;20206;-56
2024/02/13 00:45:24;;;;;;;4.10;3.63;;;;;;;;;;5013062;28;20202;-56
2024/02/13 00:47:50;;;;;;;5.70;4.13;;;;;;;;;;5024356;28;20531;-55
2024/02/13 00:50:16;;;;;;;5.90;3.90;;;;;;;;;;5026761;28;20281;-57
2024/02/13 00:52:42;;;;;;;6.47;3.70;;;;;;;;;;5026382;28;20174;-56
2024/02/13 00:55:08;;;;;;;5.17;4.23;;;;;;;;;;5024729;28;20543;-55
2024/02/13 00:57:37;;;;;;;6.83;4.33;;;;;;;;;;5024197;28;20634;-56
2024/02/13 01:00:11;;;;;;;5.53;4.00;;;;;;;;;;5025815;28;20174;-56
2024/02/13 01:02:37;;;;;;;9.50;5.13;;;;;;;;;;5024917;28;20561;-56
2024/02/13 01:05:05;;;;;;;8.30;4.90;;;;;;;;;;5024687;28;20209;-57
2024/02/13 01:07:31;;;;;;;6.73;4.03;;;;;;;;;;5028360;28;20189;-56
2024/02/13 01:09:58;;;;;;;5.73;4.60;;;;;;;;;;5029285;28;20565;-56
2024/02/13 01:12:24;;;;;;;6.00;4.47;;;;;;;;;;5030127;28;20273;-56
2024/02/13 01:14:50;;;;;;;9.13;4.90;;;;;;;;;;5029598;28;20171;-56
2024/02/13 01:17:16;;;;;;;6.70;4.33;;;;;;;;;;5029987;28;20182;-55
2024/02/13 01:19:48;;;;;;;6.17;4.30;;;;;;;;;;5025359;28;20687;-57
2024/02/13 01:22:14;;;;;;;4.77;4.10;;;;;;;;;;5028314;28;20189;-57
2024/02/13 01:24:40;;;;;;;5.97;4.53;;;;;;;;;;5026917;28;20189;-55
2024/02/13 01:27:07;;;;;;;6.10;4.40;;;;;;;;;;5023698;28;20185;-56
2024/02/13 01:29:35;;;;;;;5.47;4.97;;;;;;;;;;5019469;28;20193;-56
2024/02/13 01:32:01;;;;;;;11.10;5.43;;;;;;;;;;5023686;28;20188;-53
2024/02/13 01:34:30;;;;;;;5.93;4.67;;;;;;;;;;5026518;28;20265;-54
2024/02/13 01:36:57;;;;;;;7.57;5.10;;;;;;;;;;5025342;28;20201;-53
2024/02/13 01:39:24;;;;;;;8.33;5.57;;;;;;;;;;5029334;28;20208;-53
2024/02/13 01:41:50;;;;;;;7.77;5.23;;;;;;;;;;5029603;28;20232;-54
2024/02/13 01:44:16;;;;;;;6.87;5.40;;;;;;;;;;5029142;28;20201;-53
2024/02/13 01:46:42;;;;;;;9.23;4.93;;;;;;;;;;5030278;28;20197;-54
2024/02/13 01:49:09;;;;;;;10.47;5.23;;;;;;;;;;5028108;28;20183;-53
2024/02/13 01:51:36;;;;;;;8.03;5.13;;;;;;;;;;5029211;28;20309;-53
2024/02/13 01:54:04;;;;;;;9.10;5.30;;;;;;;;;;5025583;28;20182;-53
2024/02/13 01:56:31;;;;;;;10.57;5.53;;;;;;;;;;5029132;28;20577;-53
2024/02/13 01:59:00;;;;;;;10.63;6.07;;;;;;;;;;5028119;28;20677;-53
2024/02/13 02:01:27;;;;;;;8.33;6.33;;;;;;;;;;5029924;28;20197;-53
2024/02/13 02:03:54;;;;;;;7.60;5.13;;;;;;;;;;5029870;28;20209;-53
2024/02/13 02:06:20;;;;;;;5.93;5.13;;;;;;;;;;5022359;28;20626;-53
2024/02/13 02:08:49;;;;;;;7.17;5.63;;;;;;;;;;5028561;28;20205;-53
2024/02/13 02:11:15;;;;;;;6.00;5.20;;;;;;;;;;5022692;28;20264;-53
2024/02/13 02:13:42;;;;;;;6.53;5.77;;;;;;;;;;5023101;28;20223;-53
2024/02/13 02:16:08;;;;;;;6.87;5.40;;;;;;;;;;5020453;28;20347;-53
2024/02/13 02:18:34;;;;;;;8.20;5.73;;;;;;;;;;5023110;28;20275;-53
2024/02/13 02:21:00;;;;;;;9.03;6.30;;;;;;;;;;5029270;28;20573;-53
2024/02/13 02:23:26;;;;;;;6.57;5.87;;;;;;;;;;5017546;28;20530;-53
2024/02/13 02:25:52;;;;;;;9.47;6.50;;;;;;;;;;5025011;28;20216;-53
2024/02/13 02:28:19;;;;;;;7.60;5.97;;;;;;;;;;5028130;28;20614;-53
2024/02/13 02:30:46;;;;;;;7.50;6.27;;;;;;;;;;5028336;28;20636;-54
2024/02/13 02:33:12;;;;;;;6.63;6.03;;;;;;;;;;5029334;28;20251;-53
2024/02/13 02:35:38;;;;;;;9.30;6.50;;;;;;;;;;5024327;28;20205;-54
2024/02/13 02:38:04;;;;;;;9.10;7.43;;;;;;;;;;5025026;28;20174;-53
2024/02/13 02:40:30;;;;;;;8.43;6.37;;;;;;;;;;5029450;28;20186;-53
2024/02/13 02:42:58;;;;;;;7.27;6.23;;;;;;;;;;5027216;28;20197;-54
2024/02/13 02:45:26;;;;;;;11.47;7.40;;;;;;;;;;5027462;28;20185;-54
2024/02/13 02:47:52;;;;;;;10.57;6.83;;;;;;;;;;5028080;28;20648;-54
2024/02/13 02:50:18;;;;;;;7.87;7.00;;;;;;;;;;5024702;28;20716;-54
2024/02/13 02:52:44;;;;;;;6.93;6.23;;;;;;;;;;5025725;28;20201;-53
2024/02/13 02:55:11;;;;;;;7.50;6.50;;;;;;;;;;5021575;28;20202;-54
2024/02/13 02:57:38;;;;;;;7.90;7.07;;;;;;;;;;5015700;28;20696;-54
2024/02/13 03:00:06;;;;;;;8.63;6.73;;;;;;;;;;5024848;28;20193;-54
2024/02/13 03:02:32;;;;;;;8.30;6.77;;;;;;;;;;5026582;28;20189;-54
2024/02/13 03:04:58;;;;;;;7.43;6.73;;;;;;;;;;5016047;28;20243;-54
2024/02/13 03:07:24;;;;;;;8.57;6.50;;;;;;;;;;5020902;28;20626;-54
2024/02/13 03:09:51;;;;;;;9.53;7.37;;;;;;;;;;5022336;28;20697;-54
2024/02/13 03:12:17;;;;;;;8.93;6.70;;;;;;;;;;5026507;28;20185;-54
2024/02/13 03:14:43;;;;;;;7.73;6.63;;;;;;;;;;5027801;28;20186;-54
2024/02/13 03:17:11;;;;;;;8.80;7.00;;;;;;;;;;5027080;28;20567;-53
2024/02/13 03:19:37;;;;;;;7.73;6.67;;;;;;;;;;5027563;28;20221;-54
2024/02/13 03:22:03;;;;;;;9.80;7.07;;;;;;;;;;5027102;28;20755;-54
2024/02/13 03:24:29;;;;;;;7.80;6.37;;;;;;;;;;5023641;28;20658;-54
2024/02/13 03:26:55;;;;;;;7.83;6.93;;;;;;;;;;5027013;28;20232;-54
2024/02/13 03:29:21;;;;;;;7.97;7.00;;;;;;;;;;5025096;28;20196;-53
2024/02/13 03:31:47;;;;;;;8.30;6.63;;;;;;;;;;5024540;28;20207;-54
2024/02/13 03:34:13;;;;;;;8.60;6.73;;;;;;;;;;5026202;28;20185;-53
2024/02/13 03:36:39;;;;;;;7.77;7.00;;;;;;;;;;5027412;28;20166;-54
2024/02/13 03:39:06;;;;;;;10.17;6.47;;;;;;;;;;5025422;28;20178;-54
2024/02/13 03:41:32;;;;;;;13.20;8.33;;;;;;;;;;5026173;28;20545;-54
2024/02/13 03:43:58;;;;;;;10.20;7.63;;;;;;;;;;5024146;28;20205;-54
2024/02/13 03:46:24;;;;;;;8.27;7.07;;;;;;;;;;5026555;28;20224;-54
2024/02/13 03:48:50;;;;;;;7.63;6.77;;;;;;;;;;5024109;28;20193;-54
2024/02/13 03:51:16;;;;;;;8.20;6.67;;;;;;;;;;5024039;28;20298;-54
2024/02/13 03:53:43;;;;;;;8.97;7.17;;;;;;;;;;5021046;28;20345;-54
2024/02/13 03:56:09;;;;;;;8.50;6.77;;;;;;;;;;5024285;28;20248;-53
2024/02/13 03:58:35;;;;;;;9.33;7.07;;;;;;;;;;5024809;28;20321;-54
2024/02/13 04:01:01;;;;;;;11.27;7.27;;;;;;;;;;5026690;28;20213;-54
2024/02/13 04:03:27;;;;;;;8.67;7.73;;;;;;;;;;5026664;28;20202;-54
2024/02/13 04:05:55;;;;;;;9.00;6.83;;;;;;;;;;5018913;28;20569;-54
2024/02/13 04:08:22;;;;;;;9.17;6.57;;;;;;;;;;5018379;28;20190;-54
2024/02/13 04:10:48;;;;;;;11.40;7.50;;;;;;;;;;5024775;28;20252;-54
2024/02/13 04:13:14;;;;;;;7.63;6.70;;;;;;;;;;5025248;28;20630;-53
2024/02/13 04:15:40;;;;;;;7.67;6.87;;;;;;;;;;5022885;28;20587;-54
2024/02/13 04:18:07;;;;;;;10.30;7.37;;;;;;;;;;5018875;28;20218;-54
2024/02/13 04:20:33;;;;;;;11.27;7.20;;;;;;;;;;5021162;28;20193;-54
2024/02/13 04:22:59;;;;;;;12.37;7.70;;;;;;;;;;5025704;28;20192;-54
2024/02/13 04:25:25;;;;;;;8.00;6.73;;;;;;;;;;5021246;28;20665;-54
2024/02/13 04:27:51;;;;;;;8.93;7.10;;;;;;;;;;5026598;28;20177;-54
2024/02/13 04:30:18;;;;;;;11.33;7.67;;;;;;;;;;5026630;28;20293;-53
2024/02/13 04:32:44;;;;;;;9.70;8.30;;;;;;;;;;5025888;28;20201;-54
2024/02/13 04:35:10;;;;;;;10.67;7.67;;;;;;;;;;5026903;28;20193;-53
2024/02/13 04:37:36;;;;;;;11.97;7.50;;;;;;;;;;5026362;28;20593;-53
2024/02/13 04:40:03;;;;;;;10.33;7.73;;;;;;;;;;5025907;28;20251;-53
2024/02/13 04:42:33;;;;;;;10.50;7.33;;;;;;;;;;5025987;28;20205;-54
2024/02/13 04:44:59;;;;;;;9.57;8.10;;;;;;;;;;5028793;28;20324;-54
2024/02/13 04:47:27;;;;;;;12.43;8.47;;;;;;;;;;5031090;28;20701;-53
2024/02/13 04:49:54;;;;;;;11.30;8.10;;;;;;;;;;5026256;28;20194;-54
2024/02/13 04:52:20;;;;;;;9.47;7.60;;;;;;;;;;5031569;28;20319;-54
2024/02/13 04:54:46;;;;;;;9.30;7.60;;;;;;;;;;5028457;28;20170;-54
2024/02/13 04:57:12;;;;;;;10.97;8.27;;;;;;;;;;5029379;28;20224;-54
2024/02/13 04:59:47;;;;;;;14.73;8.20;;;;;;;;;;5028365;28;20201;-54
2024/02/13 05:02:14;;;;;;;10.50;8.33;;;;;;;;;;5029498;28;20640;-53
2024/02/13 05:07:26;;;;;;;11.17;6.97;;;;;;;;;;5031882;28;20288;-53
2024/02/13 05:09:53;;;;;;;9.13;7.90;;;;;;;;;;5028882;28;20182;-53
2024/02/13 05:12:19;;;;;;;9.87;7.70;;;;;;;;;;5030579;28;20228;-53
2024/02/13 05:14:45;;;;;;;9.50;7.77;;;;;;;;;;5027862;28;20181;-53
2024/02/13 05:17:11;;;;;;;9.97;7.70;;;;;;;;;;5027669;28;20200;-53
2024/02/13 05:19:38;;;;;;;9.40;7.87;;;;;;;;;;5022587;28;20305;-54
2024/02/13 05:22:05;;;;;;;12.37;7.83;;;;;;;;;;5023578;28;20268;-54
2024/02/13 05:24:31;;;;;;;11.70;8.03;;;;;;;;;;5021963;28;20269;-53
2024/02/13 05:26:59;;;;;;;8.33;7.40;;;;;;;;;;5027848;28;20288;-54
2024/02/13 05:29:25;;;;;;;12.90;7.93;;;;;;;;;;5024203;28;20175;-53
2024/02/13 05:31:52;;;;;;;10.83;7.40;;;;;;;;;;5017978;28;20210;-54
2024/02/13 05:34:19;;;;;;;8.80;7.70;;;;;;;;;;5021526;28;20232;-53
2024/02/13 05:36:46;;;;;;;8.50;6.97;;;;;;;;;;5029411;28;20258;-53
2024/02/13 05:39:12;;;;;;;8.90;7.33;;;;;;;;;;5028646;28;20220;-53
2024/02/13 05:41:40;;;;;;;8.87;7.03;;;;;;;;;;5029376;28;20783;-53
2024/02/13 05:44:06;;;;;;;8.73;7.80;;;;;;;;;;5028036;28;20322;-54
2024/02/13 05:46:32;;;;;;;9.37;6.97;;;;;;;;;;5024754;28;20190;-54
2024/02/13 05:49:01;;;;;;;9.70;7.67;;;;;;;;;;5019651;28;20208;-54
2024/02/13 05:51:28;;;;;;;8.80;7.53;;;;;;;;;;5020104;28;20197;-54
2024/02/13 05:53:54;;;;;;;9.93;7.37;;;;;;;;;;5022459;28;20602;-54
2024/02/13 05:56:20;;;;;;;8.27;7.47;;;;;;;;;;5021004;28;20582;-54
2024/02/13 05:58:47;;;;;;;7.67;6.63;;;;;;;;;;5022564;28;20204;-53
2024/02/13 06:01:13;;;;;;;11.37;6.90;;;;;;;;;;5027655;28;20273;-54
2024/02/13 06:03:39;;;;;;;12.50;6.87;;;;;;;;;;5025070;28;20618;-54
2024/02/13 06:06:06;;;;;;;10.30;6.63;;;;;;;;;;5027326;28;20186;-54
2024/02/13 06:08:34;;;;;;;8.77;6.57;;;;;;;;;;5020619;28;20653;-54
2024/02/13 06:11:00;;;;;;;10.20;6.80;;;;;;;;;;5014609;28;20320;-54
2024/02/13 06:13:27;;;;;;;10.13;6.83;;;;;;;;;;5027891;28;20174;-52
2024/02/13 06:15:56;;;;;;;8.10;6.70;;;;;;;;;;5025989;28;20237;-53
2024/02/13 06:18:23;;;;;;;8.47;5.63;;;;;;;;;;5016250;28;20330;-53
2024/02/13 06:20:49;;;;;;;9.27;7.30;;;;;;;;;;5019249;28;20677;-52
2024/02/13 06:23:15;;;;;;;9.20;6.57;;;;;;;;;;5019372;28;20203;-53
2024/02/13 06:25:41;;;;;;;9.20;6.27;;;;;;;;;;5011968;28;20657;-53
2024/02/13 06:28:08;;;;;;;6.90;5.40;;;;;;;;;;5019346;28;20170;-53
2024/02/13 06:30:34;;;;;;;7.53;6.43;;;;;;;;;;5024651;28;20221;-53
2024/02/13 06:33:02;;;;;;;8.73;5.83;;;;;;;;;;5028577;28;20289;-52
2024/02/13 06:35:28;;;;;;;6.77;5.43;;;;;;;;;;5024981;28;20205;-52
2024/02/13 06:37:54;;;;;;;6.20;5.30;;;;;;;;;;5016294;28;20665;-52
2024/02/13 06:40:20;;;;;;;6.60;5.50;;;;;;;;;;5020498;28;20665;-53
2024/02/13 06:42:47;;;;;;;7.37;5.50;;;;;;;;;;5023576;28;20201;-52
2024/02/13 06:45:13;;;;;;;8.63;5.97;;;;;;;;;;5022007;28;20174;-53
2024/02/13 06:47:39;;;;;;;6.93;5.03;;;;;;;;;;5020489;28;20197;-53
2024/02/13 06:50:12;;;;;;;7.47;6.27;;;;;;;;;;5025047;28;20268;-54
2024/02/13 06:52:39;;;;;;;6.70;4.53;;;;;;;;;;5018141;28;20558;-52
2024/02/13 06:55:07;;;;;;;8.83;5.50;;;;;;;;;;5025438;28;20205;-53
2024/02/13 06:57:35;;;;;;;6.50;5.37;;;;;;;;;;5029915;28;20649;-53
2024/02/13 07:00:03;;;;;;;8.33;5.07;;;;;;;;;;5023377;28;20212;-53
2024/02/13 07:02:29;;;;;;;8.50;5.00;;;;;;;;;;5018185;28;20755;-52
2024/02/13 07:04:56;;;;;;;5.33;4.80;;;;;;;;;;5017904;28;20631;-53
2024/02/13 07:07:21;;;;;;;8.33;5.33;;;;;;;;;;5023426;28;20673;-52
2024/02/13 07:09:52;;;;;;;6.50;5.17;;;;;;;;;;5021799;28;20190;-53
2024/02/13 07:12:18;;;;;;;5.83;4.40;;;;;;;;;;5026407;28;20609;-53
2024/02/13 07:14:44;;;;;;;7.80;4.77;;;;;;;;;;5022668;28;20265;-52
2024/02/13 07:17:10;;;;;;;7.83;4.37;;;;;;;;;;5019255;28;20173;-52
2024/02/13 07:19:36;;;;;;;6.20;4.83;;;;;;;;;;5023301;28;20232;-53
2024/02/13 07:22:02;;;;;;;11.33;5.23;;;;;;;;;;5018607;28;20273;-53
2024/02/13 07:24:29;;;;;;;7.17;4.50;;;;;;;;;;5020537;28;20210;-53
2024/02/13 07:26:55;;;;;;;10.03;4.60;;;;;;;;;;5027022;28;20200;-52
2024/02/13 07:29:21;;;;;;;4.43;3.60;;;;;;;;;;5023001;28;20530;-53
2024/02/13 07:31:47;;;;;;;7.17;4.47;;;;;;;;;;5020420;28;20206;-52
2024/02/13 07:34:13;;;;;;;5.27;3.97;;;;;;;;;;5021842;28;20248;-52
2024/02/13 07:36:40;;;;;;;6.17;4.37;;;;;;;;;;5025926;28;20181;-53
2024/02/13 07:39:09;;;;;;;4.80;4.07;;;;;;;;;;5021810;28;20214;-53
2024/02/13 07:41:35;;;;;;;7.87;5.10;;;;;;;;;;5025437;28;20213;-53
2024/02/13 07:44:01;;;;;;;6.17;3.80;;;;;;;;;;5019280;28;20243;-52
2024/02/13 07:46:27;;;;;;;6.83;4.53;;;;;;;;;;5030390;28;20190;-53
2024/02/13 07:48:55;;;;;;;5.40;3.90;;;;;;;;;;5024729;28;20186;-52
2024/02/13 07:51:21;;;;;;;4.87;4.33;;;;;;;;;;5025650;28;20510;-53
2024/02/13 07:53:47;;;;;;;5.03;3.77;;;;;;;;;;5024613;28;20238;-51
2024/02/13 07:56:13;;;;;;;6.17;4.10;;;;;;;;;;5022249;28;20178;-51
2024/02/13 07:58:39;;;;;;;4.80;4.30;;;;;;;;;;5021536;28;20178;-52
2024/02/13 08:01:09;;;;;;;6.17;4.17;;;;;;;;;;5024698;28;20637;-53
2024/02/13 08:03:36;;;;;;;6.37;3.70;;;;;;;;;;5022027;28;20344;-52
2024/02/13 08:06:02;;;;;;;6.50;4.00;;;;;;;;;;5026665;28;20190;-52
2024/02/13 08:08:29;;;;;;;4.57;3.90;;;;;;;;;;5024108;28;20209;-53
2024/02/13 08:10:55;;;;;;;6.37;4.00;;;;;;;;;;5025665;28;20261;-53
2024/02/13 08:13:21;;;;;;;4.53;3.87;;;;;;;;;;5024169;28;20220;-53
2024/02/13 08:15:47;;;;;;;5.47;4.33;;;;;;;;;;5025802;28;20185;-53
2024/02/13 08:18:14;;;;;;;6.33;4.53;;;;;;;;;;5024230;28;20791;-54
2024/02/13 08:20:40;;;;;;;6.27;3.77;;;;;;;;;;5023573;28;20288;-53
2024/02/13 08:23:06;;;;;;;5.43;3.60;;;;;;;;;;5023630;28;20609;-52
2024/02/13 08:25:32;;;;;;;7.00;4.00;;;;;;;;;;5023954;28;20186;-53
2024/02/13 08:27:59;;;;;;;5.03;3.57;;;;;;;;;;5023551;28;20236;-54
2024/02/13 08:30:26;;;;;;;4.43;3.60;;;;;;;;;;5024226;28;20344;-53
2024/02/13 08:32:52;;;;;;;6.03;3.87;;;;;;;;;;5028921;28;20182;-53
2024/02/13 08:35:19;;;;;;;6.40;3.77;;;;;;;;;;5023071;28;20198;-53
2024/02/13 08:37:45;;;;;;;8.37;3.93;;;;;;;;;;5026660;28;20216;-53
2024/02/13 08:40:15;;;;;;;6.67;3.60;;;;;;;;;;5026602;28;20331;-53
2024/02/13 08:42:41;;;;;;;4.27;3.73;;;;;;;;;;5027106;28;20685;-54
2024/02/13 08:45:08;;;;;;;4.30;3.37;;;;;;;;;;5019041;28;20191;-53
2024/02/13 08:47:35;;;;;;;6.60;3.47;;;;;;;;;;5019696;28;20190;-53
2024/02/13 08:50:02;;;;;;;3.90;3.37;;;;;;;;;;5026818;28;20640;-53
2024/02/13 08:52:28;;;;;;;6.50;3.20;;;;;;;;;;5017499;28;20212;-54
2024/02/13 08:54:54;;;;;;;6.63;3.50;;;;;;;;;;5019476;28;20183;-53
2024/02/13 08:57:20;;;;;;;7.47;3.57;;;;;;;;;;5020863;28;20181;-53
2024/02/13 08:59:46;;;;;;;3.77;3.00;;;;;;;;;;5022582;28;20220;-53
2024/02/13 09:02:13;;;;;;;7.73;3.17;;;;;;;;;;5025065;28;20191;-53
2024/02/13 09:04:39;;;;;;;3.97;3.10;;;;;;;;;;5021010;28;20683;-53
2024/02/13 09:07:06;;;;;;;6.03;3.20;;;;;;;;;;5019006;28;20190;-53
2024/02/13 09:09:32;;;;;;;3.40;2.57;;;;;;;;;;5025009;28;20673;-53
2024/02/13 09:11:59;;;;;;;4.53;3.27;;;;;;;;;;5024769;28;20732;-53
2024/02/13 09:14:25;;;;;;;7.03;2.93;;;;;;;;;;5023418;28;20182;-53
2024/02/13 09:16:51;;;;;;;5.27;3.17;;;;;;;;;;5025442;28;20189;-53
2024/02/13 09:19:17;;;;;;;3.73;3.20;;;;;;;;;;5025820;28;20229;-53
2024/02/13 09:21:43;;;;;;;4.93;2.93;;;;;;;;;;5024984;28;20337;-54
2024/02/13 09:24:09;;;;;;;5.03;2.93;;;;;;;;;;5022800;28;20198;-53
2024/02/13 09:26:36;;;;;;;4.37;2.97;;;;;;;;;;5023080;28;20178;-53
2024/02/13 09:29:02;;;;;;;6.97;3.97;;;;;;;;;;5023228;28;20660;-54
2024/02/13 09:31:28;;;;;;;5.20;3.20;;;;;;;;;;5027072;28;20214;-53
2024/02/13 09:33:54;;;;;;;4.67;3.07;;;;;;;;;;5021417;28;20202;-53
2024/02/13 09:36:21;;;;;;;6.00;3.17;;;;;;;;;;5023244;28;20228;-54
2024/02/13 09:38:47;;;;;;;4.03;2.70;;;;;;;;;;5023561;28;20277;-53
2024/02/13 09:41:14;;;;;;;5.00;2.83;;;;;;;;;;5020687;28;20190;-53
2024/02/13 09:43:40;;;;;;;3.13;2.73;;;;;;;;;;5021225;28;20689;-56
2024/02/13 09:46:06;;;;;;;3.47;2.37;;;;;;;;;;5025614;28;20272;-56
2024/02/13 09:48:37;;;;;;;3.53;2.63;;;;;;;;;;5023638;28;20238;-56
2024/02/13 09:51:09;;;;;;;4.53;2.30;;;;;;;;;;5028229;28;20844;-56
2024/02/13 09:53:40;;;;;;;4.67;2.90;;;;;;;;;;5024954;28;20166;-55
2024/02/13 09:56:06;;;;;;;4.00;2.33;;;;;;;;;;5027951;28;20181;-57
2024/02/13 09:58:32;;;;;;;7.77;3.17;;;;;;;;;;5028675;28;20178;-56
2024/02/13 10:00:59;;;;;;;3.97;2.80;;;;;;;;;;5029255;28;20642;-56
2024/02/13 10:03:26;;;;;;;4.30;2.63;;;;;;;;;;5028391;28;20193;-56
2024/02/13 10:05:52;;;;;;;5.03;2.50;;;;;;;;;;5029362;28;20217;-56
2024/02/13 10:08:20;;;;;;;3.70;2.17;;;;;;;;;;5027239;28;20197;-57
2024/02/13 10:10:46;;;;;;;4.60;2.10;;;;;;;;;;5028892;28;20216;-56
2024/02/13 10:13:12;;;;;;;4.03;2.40;;;;;;;;;;5026346;28;20544;-56
2024/02/13 10:15:43;;;;;;;3.50;2.40;;;;;;;;;;5028494;28;20181;-55
2024/02/13 10:18:11;;;;;;;4.57;2.03;;;;;;;;;;5017247;28;20226;-56
2024/02/13 10:20:40;;;;;;;3.80;2.50;;;;;;;;;;5023711;28;20285;-56
2024/02/13 10:23:07;;;;;;;7.63;2.37;;;;;;;;;;5023337;28;20544;-56
2024/02/13 10:25:33;;;;;;;6.43;2.23;;;;;;;;;;5023484;28;20632;-55
2024/02/13 10:28:00;;;;;;;6.00;3.00;;;;;;;;;;5023628;28;20179;-55
2024/02/13 10:30:28;;;;;;;4.17;1.90;;;;;;;;;;5020710;28;20212;-56
2024/02/13 10:32:55;;;;;;;3.23;2.50;;;;;;;;;;5022409;28;20182;-57
2024/02/13 10:35:22;;;;;;;2.93;1.90;;;;;;;;;;5020588;28;20174;-56
2024/02/13 10:37:48;;;;;;;5.17;2.23;;;;;;;;;;5025205;28;20245;-56
2024/02/13 10:40:18;;;;;;;3.87;2.23;;;;;;;;;;5026584;28;20185;-56
2024/02/13 10:42:44;;;;;;;3.27;1.80;;;;;;;;;;5026905;28;20209;-57
2024/02/13 10:45:11;;;;;;;2.93;1.83;;;;;;;;;;5021336;28;20560;-57
2024/02/13 10:47:40;;;;;;;2.00;1.80;;;;;;;;;;5025289;28;20181;-56
2024/02/13 10:50:07;;;;;;;6.13;2.20;;;;;;;;;;5020047;28;20178;-57
2024/02/13 10:52:35;;;;;;;3.20;1.77;;;;;;;;;;5026178;28;20182;-53
2024/02/13 10:55:06;;;;;;;2.60;2.20;;;;;;;;;;5019996;28;20637;-53
2024/02/13 10:57:36;;;;;;;5.37;2.37;;;;;;;;;;5023026;28;20181;-54
2024/02/13 11:00:10;;;;;;;4.00;2.07;;;;;;;;;;5023296;28;20525;-53
2024/02/13 11:02:37;;;;;;;3.07;1.97;;;;;;;;;;5020781;28;20174;-53
2024/02/13 11:05:06;;;;;;;3.47;1.73;;;;;;;;;;5024066;28;20174;-53
2024/02/13 11:07:33;;;;;;;4.30;2.37;;;;;;;;;;5024857;28;20256;-53
2024/02/13 11:10:00;;;;;;;2.53;1.67;;;;;;;;;;5027658;28;20181;-53
2024/02/13 11:12:26;;;;;;;3.07;1.70;;;;;;;;;;5027134;28;20280;-53
2024/02/13 11:14:52;;;;;;;5.90;2.23;;;;;;;;;;5027492;28;20680;-53
2024/02/13 11:17:19;;;;;;;4.27;1.90;;;;;;;;;;5027930;28;20213;-53
2024/02/13 11:19:49;;;;;;;3.63;2.30;;;;;;;;;;5025928;28;20646;-54
2024/02/13 11:22:15;;;;;;;2.83;1.70;;;;;;;;;;5025297;28;20181;-53
2024/02/13 11:24:53;;;;;;;4.37;2.03;;;;;;;;;;5022934;28;20189;-53
2024/02/13 11:27:26;;;;;;;1.70;1.60;;;;;;;;;;5024491;28;20185;-53
2024/02/13 11:29:57;;;;;;;3.10;1.80;;;;;;;;;;5020305;28;20219;-53
2024/02/13 11:32:28;;;;;;;3.90;1.70;;;;;;;;;;5015872;28;20702;-53
2024/02/13 11:34:58;;;;;;;6.07;2.13;;;;;;;;;;5017326;28;20649;-53
2024/02/13 11:37:27;;;;;;;3.90;1.83;;;;;;;;;;5026083;28;20193;-52
2024/02/13 11:39:54;;;;;;;4.57;1.70;;;;;;;;;;5021754;28;20176;-53
2024/02/13 11:42:22;;;;;;;2.80;1.50;;;;;;;;;;5024730;28;20646;-53
2024/02/13 11:44:51;;;;;;;2.97;1.73;;;;;;;;;;5021463;28;20630;-52
2024/02/13 11:47:20;;;;;;;3.40;2.17;;;;;;;;;;5027450;28;20167;-54
2024/02/13 11:49:48;;;;;;;3.80;1.97;;;;;;;;;;5027852;28;20174;-53
2024/02/13 11:52:14;;;;;;;3.23;1.70;;;;;;;;;;5026589;28;20205;-53
2024/02/13 11:54:43;;;;;;;3.37;1.50;;;;;;;;;;5018975;28;20166;-53
2024/02/13 11:57:11;;;;;;;2.30;1.30;;;;;;;;;;5033358;28;20576;-53
2024/02/13 11:59:37;;;;;;;3.83;1.50;;;;;;;;;;5025937;28;20490;-53
2024/02/13 12:02:03;;;;;;;6.63;1.60;;;;;;;;;;5018337;28;20268;-53
2024/02/13 12:04:30;;;;;;;4.33;1.40;;;;;;;;;;5027650;28;20205;-53
2024/02/13 12:06:58;;;;;;;3.97;1.30;;;;;;;;;;5027372;28;20197;-54
2024/02/13 12:09:25;;;;;;;3.70;1.73;;;;;;;;;;5026459;28;20205;-54
2024/02/13 12:11:51;;;;;;;2.53;1.30;;;;;;;;;;5027120;28;20201;-53
2024/02/13 12:14:18;;;;;;;2.70;1.70;;;;;;;;;;5025580;28;20598;-53
2024/02/13 12:16:44;;;;;;;4.17;1.40;;;;;;;;;;5024236;28;20170;-54
2024/02/13 12:19:10;;;;;;;3.67;1.33;;;;;;;;;;5021081;28;20765;-54
2024/02/13 12:21:39;;;;;;;4.30;1.60;;;;;;;;;;5023396;28;20219;-54
2024/02/13 12:24:07;;;;;;;1.97;1.40;;;;;;;;;;5022576;28;20179;-54
2024/02/13 12:26:33;;;;;;;3.80;1.53;;;;;;;;;;5022460;28;20174;-54
2024/02/13 12:28:59;;;;;;;3.00;1.33;;;;;;;;;;5025086;28;20227;-54
2024/02/13 12:31:27;;;;;;;8.13;1.77;;;;;;;;;;5021200;28;20202;-54
2024/02/13 12:34:06;;;;;;;2.90;1.40;;;;;;;;;;5024040;28;20173;-54
2024/02/13 12:36:33;;;;;;;2.93;1.90;;;;;;;;;;5018407;28;20183;-54
2024/02/13 12:39:16;;;;;;;5.90;1.67;;;;;;;;;;5021269;28;20188;-54
2024/02/13 12:41:43;;;;;;;3.30;1.70;;;;;;;;;;5015884;28;20196;-54
2024/02/13 12:44:09;;;;;;;4.07;1.57;;;;;;;;;;5015879;28;20277;-54
2024/02/13 12:46:36;;;;;;;1.40;1.30;;;;;;;;;;5019856;28;20288;-54
2024/02/13 12:49:06;;;;;;;1.87;1.60;;;;;;;;;;5016619;28;20500;-54
2024/02/13 12:51:33;;;;;;;2.13;1.67;;;;;;;;;;5013827;28;20241;-54
2024/02/13 12:54:04;;;;;;;9.70;1.60;;;;;;;;;;5019779;28;20236;-54
2024/02/13 12:56:30;;;;;;;1.63;1.45;;;;;;;;;;5019683;28;20874;-53
2024/02/13 12:58:57;;;;;;;4.60;1.40;;;;;;;;;;5020661;28;20625;-54
2024/02/13 13:01:24;;;;;;;3.67;1.93;;;;;;;;;;5017400;28;20472;-54
2024/02/13 13:03:50;;;;;;;3.23;1.50;;;;;;;;;;5027668;28;20193;-54
2024/02/13 13:06:19;;;;;;;3.40;1.60;;;;;;;;;;5024220;28;20696;-53
2024/02/13 13:08:47;;;;;;;3.53;1.60;;;;;;;;;;5026062;28;20181;-54
2024/02/13 13:11:13;;;;;;;5.23;1.60;;;;;;;;;;5026845;28;20255;-54
2024/02/13 13:13:40;;;;;;;2.60;1.73;;;;;;;;;;5022432;28;20752;-58
2024/02/13 13:16:11;;;;;;;1.33;1.23;;;;;;;;;;5018499;28;20269;-57
2024/02/13 13:18:38;;;;;;;4.53;1.50;;;;;;;;;;5022526;28;20275;-57
2024/02/13 13:21:05;;;;;;;2.27;1.30;;;;;;;;;;5019942;28;20674;-57
2024/02/13 13:23:31;;;;;;;4.10;1.70;;;;;;;;;;5023029;28;20174;-57
2024/02/13 13:25:58;;;;;;;4.23;1.70;;;;;;;;;;5016382;28;20245;-57
2024/02/13 13:28:26;;;;;;;3.67;1.60;;;;;;;;;;5026265;28;20184;-58
2024/02/13 13:31:00;;;;;;;1.40;1.30;;;;;;;;;;5029776;28;20304;-57
2024/02/13 13:33:30;;;;;;;2.73;1.40;;;;;;;;;;5018875;28;20174;-57
2024/02/13 13:35:58;;;;;;;2.07;1.20;;;;;;;;;;5027038;28;20659;-56
2024/02/13 13:38:25;;;;;;;2.60;1.57;;;;;;;;;;5025841;28;20202;-57
2024/02/13 13:40:51;;;;;;;2.67;1.37;;;;;;;;;;5026544;28;20541;-57
2024/02/13 13:43:18;;;;;;;2.77;1.70;;;;;;;;;;5023683;28;20205;-56
2024/02/13 13:45:54;;;;;;;2.00;1.30;;;;;;;;;;5027777;28;20534;-58
2024/02/13 13:48:21;;;;;;;3.17;1.50;;;;;;;;;;5019855;28;20170;-57
2024/02/13 13:50:47;;;;;;;3.33;1.40;;;;;;;;;;5019432;28;20201;-57
2024/02/13 13:53:13;;;;;;;2.00;1.40;;;;;;;;;;5017264;28;20186;-57
2024/02/13 13:55:40;;;;;;;4.40;1.57;;;;;;;;;;5020051;28;20288;-57
2024/02/13 13:58:09;;;;;;;3.90;1.67;;;;;;;;;;5027903;28;20170;-58
2024/02/13 14:00:35;;;;;;;3.57;1.57;;;;;;;;;;5021241;28;20205;-57
2024/02/13 14:03:06;;;;;;;3.30;1.70;;;;;;;;;;5025571;28;20181;-57
2024/02/13 14:05:33;;;;;;;3.30;1.50;;;;;;;;;;5029127;28;20186;-56
2024/02/13 14:08:02;;;;;;;1.90;1.00;;;;;;;;;;5025214;28;20546;-56
2024/02/13 14:10:29;;;;;;;2.10;1.53;;;;;;;;;;5026253;28;20364;-57
2024/02/13 14:12:55;;;;;;;3.07;1.57;;;;;;;;;;5026522;28;20271;-58
2024/02/13 14:15:22;;;;;;;2.13;1.50;;;;;;;;;;5027209;28;20308;-57
2024/02/13 14:17:48;;;;;;;2.23;2.00;;;;;;;;;;5024172;28;20291;-57
2024/02/13 14:20:14;;;;;;;2.03;1.13;;;;;;;;;;5026148;28;20193;-56
2024/02/13 14:22:44;;;;;;;1.27;1.17;;;;;;;;;;5019725;28;20225;-54
2024/02/13 14:25:11;;;;;;;4.27;1.30;;;;;;;;;;5024501;28;20600;-54
2024/02/13 14:27:37;;;;;;;1.53;1.13;;;;;;;;;;5019872;28;20167;-54
2024/02/13 14:30:05;;;;;;;3.57;1.30;;;;;;;;;;5023226;28;20183;-54
2024/02/13 14:32:31;;;;;;;2.47;1.30;;;;;;;;;;5022309;28;20240;-57
2024/02/13 14:34:57;;;;;;;2.73;1.20;;;;;;;;;;5015819;28;20174;-54
2024/02/13 14:37:25;;;;;;;2.20;1.30;;;;;;;;;;5019003;28;20502;-57
2024/02/13 14:39:52;;;;;;;1.53;1.07;;;;;;;;;;5022426;28;20242;-53
2024/02/13 14:42:19;;;;;;;2.40;1.67;;;;;;;;;;5024966;28;20200;-54